sensor_id;sensor_type;location;lat;lon;timestamp;P1;durP1;ratioP1;P2;durP2;ratioP2
8909;SDS011;4490;49.072;8.804;2022-11-20T00:01:27;19.53;;;12.53;;
8909;SDS011;4490;49.072;8.804;2022-11-20T00:03:54;18.97;;;12.97;;
8909;SDS011;4490;49.072;8.804;2022-11-20T00:06:20;19.07;;;12.80;;
8909;SDS011;4490;49.072;8.804;2022-11-20T00:08:47;20.73;;;12.60;;
8909;SDS011;4490;49.072;8.804;2022-11-20T00:11:14;19.70;;;12.80;;
8909;SDS011;4490;49.072;8.804;2022-11-20T00:13:42;19.97;;;12.20;;
8909;SDS011;4490;49.072;8.804;2022-11-20T00:16:10;17.90;;;11.67;;
8909;SDS011;4490;49.072;8.804;2022-11-20T00:18:37;19.53;;;12.27;;
8909;SDS011;4490;49.072;8.804;2022-11-20T00:21:03;18.33;;;12.63;;
8909;SDS011;4490;49.072;8.804;2022-11-20T00:23:30;20.80;;;13.23;;
8909;SDS011;4490;49.072;8.804;2022-11-20T00:25:56;16.97;;;12.23;;
8909;SDS011;4490;49.072;8.804;2022-11-20T00:28:22;20.23;;;13.03;;
8909;SDS011;4490;49.072;8.804;2022-11-20T00:30:47;20.73;;;13.33;;
8909;SDS011;4490;49.072;8.804;2022-11-20T00:33:13;18.33;;;12.03;;
8909;SDS011;4490;49.072;8.804;2022-11-20T00:35:38;23.47;;;13.03;;
8909;SDS011;4490;49.072;8.804;2022-11-20T00:38:04;18.53;;;12.43;;
8909;SDS011;4490;49.072;8.804;2022-11-20T00:40:29;19.90;;;12.87;;
8909;SDS011;4490;49.072;8.804;2022-11-20T00:42:55;20.67;;;13.33;;
8909;SDS011;4490;49.072;8.804;2022-11-20T00:45:21;19.87;;;12.60;;
8909;SDS011;4490;49.072;8.804;2022-11-20T00:47:46;23.23;;;13.23;;
8909;SDS011;4490;49.072;8.804;2022-11-20T00:50:12;24.97;;;13.77;;
8909;SDS011;4490;49.072;8.804;2022-11-20T00:52:37;20.57;;;13.20;;
8909;SDS011;4490;49.072;8.804;2022-11-20T00:55:03;20.47;;;13.30;;
8909;SDS011;4490;49.072;8.804;2022-11-20T00:57:29;19.87;;;13.53;;
8909;SDS011;4490;49.072;8.804;2022-11-20T00:59:54;23.30;;;13.53;;
8909;SDS011;4490;49.072;8.804;2022-11-20T01:02:20;23.33;;;14.13;;
8909;SDS011;4490;49.072;8.804;2022-11-20T01:04:46;27.53;;;13.67;;
8909;SDS011;4490;49.072;8.804;2022-11-20T01:07:11;21.13;;;13.30;;
8909;SDS011;4490;49.072;8.804;2022-11-20T01:09:37;21.53;;;13.40;;
8909;SDS011;4490;49.072;8.804;2022-11-20T01:12:03;22.70;;;13.90;;
8909;SDS011;4490;49.072;8.804;2022-11-20T01:14:28;24.70;;;14.53;;
8909;SDS011;4490;49.072;8.804;2022-11-20T01:16:54;25.07;;;15.27;;
8909;SDS011;4490;49.072;8.804;2022-11-20T01:19:21;30.93;;;16.50;;
8909;SDS011;4490;49.072;8.804;2022-11-20T01:21:50;26.17;;;15.30;;
8909;SDS011;4490;49.072;8.804;2022-11-20T01:24:17;25.93;;;16.40;;
8909;SDS011;4490;49.072;8.804;2022-11-20T01:26:45;29.13;;;16.20;;
8909;SDS011;4490;49.072;8.804;2022-11-20T01:29:13;31.43;;;16.67;;
8909;SDS011;4490;49.072;8.804;2022-11-20T01:31:40;27.50;;;17.03;;
8909;SDS011;4490;49.072;8.804;2022-11-20T01:34:08;28.43;;;17.53;;
8909;SDS011;4490;49.072;8.804;2022-11-20T01:36:36;29.70;;;17.07;;
8909;SDS011;4490;49.072;8.804;2022-11-20T01:39:04;31.40;;;18.07;;
8909;SDS011;4490;49.072;8.804;2022-11-20T01:41:31;27.97;;;17.80;;
8909;SDS011;4490;49.072;8.804;2022-11-20T01:44:17;28.33;;;16.57;;
8909;SDS011;4490;49.072;8.804;2022-11-20T01:46:57;31.30;;;18.07;;
8909;SDS011;4490;49.072;8.804;2022-11-20T01:49:27;30.97;;;18.17;;
8909;SDS011;4490;49.072;8.804;2022-11-20T01:54:44;27.13;;;16.77;;
8909;SDS011;4490;49.072;8.804;2022-11-20T01:57:15;28.67;;;16.87;;
8909;SDS011;4490;49.072;8.804;2022-11-20T01:59:44;27.10;;;16.83;;
8909;SDS011;4490;49.072;8.804;2022-11-20T02:02:15;26.83;;;16.00;;
8909;SDS011;4490;49.072;8.804;2022-11-20T02:04:40;26.03;;;16.37;;
8909;SDS011;4490;49.072;8.804;2022-11-20T02:07:06;23.97;;;16.70;;
8909;SDS011;4490;49.072;8.804;2022-11-20T02:09:33;24.67;;;15.90;;
8909;SDS011;4490;49.072;8.804;2022-11-20T02:11:58;24.60;;;15.43;;
8909;SDS011;4490;49.072;8.804;2022-11-20T02:14:25;22.33;;;14.43;;
8909;SDS011;4490;49.072;8.804;2022-11-20T02:16:51;21.27;;;14.03;;
8909;SDS011;4490;49.072;8.804;2022-11-20T02:19:23;23.20;;;14.80;;
8909;SDS011;4490;49.072;8.804;2022-11-20T02:21:54;24.00;;;13.37;;
8909;SDS011;4490;49.072;8.804;2022-11-20T02:24:35;25.37;;;14.23;;
8909;SDS011;4490;49.072;8.804;2022-11-20T02:27:02;20.50;;;13.30;;
8909;SDS011;4490;49.072;8.804;2022-11-20T02:29:35;21.20;;;13.50;;
8909;SDS011;4490;49.072;8.804;2022-11-20T02:32:04;17.30;;;12.60;;
8909;SDS011;4490;49.072;8.804;2022-11-20T02:34:30;18.30;;;12.47;;
8909;SDS011;4490;49.072;8.804;2022-11-20T02:36:56;18.40;;;12.13;;
8909;SDS011;4490;49.072;8.804;2022-11-20T02:39:24;20.30;;;12.77;;
8909;SDS011;4490;49.072;8.804;2022-11-20T02:41:55;17.83;;;11.87;;
8909;SDS011;4490;49.072;8.804;2022-11-20T02:44:21;18.37;;;11.43;;
8909;SDS011;4490;49.072;8.804;2022-11-20T02:46:46;15.80;;;11.50;;
8909;SDS011;4490;49.072;8.804;2022-11-20T02:49:12;15.00;;;10.93;;
8909;SDS011;4490;49.072;8.804;2022-11-20T02:51:38;15.50;;;11.03;;
8909;SDS011;4490;49.072;8.804;2022-11-20T02:54:03;13.83;;;10.70;;
8909;SDS011;4490;49.072;8.804;2022-11-20T02:56:29;15.93;;;10.80;;
8909;SDS011;4490;49.072;8.804;2022-11-20T02:58:55;13.73;;;9.10;;
8909;SDS011;4490;49.072;8.804;2022-11-20T03:01:26;15.63;;;9.97;;
8909;SDS011;4490;49.072;8.804;2022-11-20T03:03:52;13.30;;;8.83;;
8909;SDS011;4490;49.072;8.804;2022-11-20T03:06:19;10.20;;;8.40;;
8909;SDS011;4490;49.072;8.804;2022-11-20T03:08:45;12.20;;;9.13;;
8909;SDS011;4490;49.072;8.804;2022-11-20T03:11:10;15.00;;;8.93;;
8909;SDS011;4490;49.072;8.804;2022-11-20T03:13:36;12.80;;;8.83;;
8909;SDS011;4490;49.072;8.804;2022-11-20T03:16:09;11.17;;;8.13;;
8909;SDS011;4490;49.072;8.804;2022-11-20T03:18:37;10.97;;;8.70;;
8909;SDS011;4490;49.072;8.804;2022-11-20T03:21:03;9.27;;;7.57;;
8909;SDS011;4490;49.072;8.804;2022-11-20T03:23:29;10.87;;;7.97;;
8909;SDS011;4490;49.072;8.804;2022-11-20T03:26:06;11.00;;;7.70;;
8909;SDS011;4490;49.072;8.804;2022-11-20T03:28:36;8.87;;;7.00;;
8909;SDS011;4490;49.072;8.804;2022-11-20T03:31:09;9.57;;;7.83;;
8909;SDS011;4490;49.072;8.804;2022-11-20T03:33:39;7.67;;;6.73;;
8909;SDS011;4490;49.072;8.804;2022-11-20T03:36:06;8.40;;;7.53;;
8909;SDS011;4490;49.072;8.804;2022-11-20T03:38:34;9.43;;;6.70;;
8909;SDS011;4490;49.072;8.804;2022-11-20T03:41:01;8.13;;;6.37;;
8909;SDS011;4490;49.072;8.804;2022-11-20T03:43:28;8.50;;;6.57;;
8909;SDS011;4490;49.072;8.804;2022-11-20T03:45:54;10.50;;;7.20;;
8909;SDS011;4490;49.072;8.804;2022-11-20T03:48:20;8.43;;;6.93;;
8909;SDS011;4490;49.072;8.804;2022-11-20T03:50:45;10.93;;;6.73;;
8909;SDS011;4490;49.072;8.804;2022-11-20T03:53:12;9.70;;;7.17;;
8909;SDS011;4490;49.072;8.804;2022-11-20T03:55:38;7.10;;;5.47;;
8909;SDS011;4490;49.072;8.804;2022-11-20T03:58:04;9.73;;;6.27;;
8909;SDS011;4490;49.072;8.804;2022-11-20T04:00:30;7.67;;;5.50;;
8909;SDS011;4490;49.072;8.804;2022-11-20T04:02:59;7.33;;;5.97;;
8909;SDS011;4490;49.072;8.804;2022-11-20T04:05:25;7.43;;;6.33;;
8909;SDS011;4490;49.072;8.804;2022-11-20T04:07:51;7.33;;;5.60;;
8909;SDS011;4490;49.072;8.804;2022-11-20T04:10:16;6.70;;;5.43;;
8909;SDS011;4490;49.072;8.804;2022-11-20T04:12:42;7.90;;;5.47;;
8909;SDS011;4490;49.072;8.804;2022-11-20T04:15:08;6.83;;;4.83;;
8909;SDS011;4490;49.072;8.804;2022-11-20T04:17:34;6.67;;;5.23;;
8909;SDS011;4490;49.072;8.804;2022-11-20T04:20:00;5.60;;;5.00;;
8909;SDS011;4490;49.072;8.804;2022-11-20T04:22:26;7.30;;;5.07;;
8909;SDS011;4490;49.072;8.804;2022-11-20T04:24:52;5.93;;;4.90;;
8909;SDS011;4490;49.072;8.804;2022-11-20T04:27:17;6.63;;;5.27;;
8909;SDS011;4490;49.072;8.804;2022-11-20T04:29:43;6.50;;;5.23;;
8909;SDS011;4490;49.072;8.804;2022-11-20T04:32:09;5.87;;;5.07;;
8909;SDS011;4490;49.072;8.804;2022-11-20T04:34:34;6.63;;;5.07;;
8909;SDS011;4490;49.072;8.804;2022-11-20T04:37:00;6.33;;;4.97;;
8909;SDS011;4490;49.072;8.804;2022-11-20T04:39:26;6.73;;;5.50;;
8909;SDS011;4490;49.072;8.804;2022-11-20T04:41:51;6.63;;;5.10;;
8909;SDS011;4490;49.072;8.804;2022-11-20T04:44:37;6.70;;;5.20;;
8909;SDS011;4490;49.072;8.804;2022-11-20T04:47:02;6.53;;;5.03;;
8909;SDS011;4490;49.072;8.804;2022-11-20T04:49:28;5.50;;;4.63;;
8909;SDS011;4490;49.072;8.804;2022-11-20T04:51:54;6.63;;;5.20;;
8909;SDS011;4490;49.072;8.804;2022-11-20T04:54:19;5.50;;;4.90;;
8909;SDS011;4490;49.072;8.804;2022-11-20T04:56:47;5.57;;;4.53;;
8909;SDS011;4490;49.072;8.804;2022-11-20T04:59:13;5.47;;;4.70;;
8909;SDS011;4490;49.072;8.804;2022-11-20T05:01:38;5.17;;;4.53;;
8909;SDS011;4490;49.072;8.804;2022-11-20T05:04:04;5.90;;;4.83;;
8909;SDS011;4490;49.072;8.804;2022-11-20T05:06:30;5.00;;;4.37;;
8909;SDS011;4490;49.072;8.804;2022-11-20T05:08:57;7.77;;;4.43;;
8909;SDS011;4490;49.072;8.804;2022-11-20T05:11:23;6.57;;;4.50;;
8909;SDS011;4490;49.072;8.804;2022-11-20T05:13:49;6.20;;;4.60;;
8909;SDS011;4490;49.072;8.804;2022-11-20T05:16:17;6.83;;;4.20;;
8909;SDS011;4490;49.072;8.804;2022-11-20T05:18:44;6.33;;;4.57;;
8909;SDS011;4490;49.072;8.804;2022-11-20T05:21:10;5.00;;;4.00;;
8909;SDS011;4490;49.072;8.804;2022-11-20T05:23:36;5.20;;;4.43;;
8909;SDS011;4490;49.072;8.804;2022-11-20T05:26:03;5.23;;;4.43;;
8909;SDS011;4490;49.072;8.804;2022-11-20T05:28:30;4.93;;;4.43;;
8909;SDS011;4490;49.072;8.804;2022-11-20T05:31:03;6.90;;;4.33;;
8909;SDS011;4490;49.072;8.804;2022-11-20T05:33:33;5.27;;;3.90;;
8909;SDS011;4490;49.072;8.804;2022-11-20T05:35:59;4.73;;;3.67;;
8909;SDS011;4490;49.072;8.804;2022-11-20T05:38:25;6.23;;;4.07;;
8909;SDS011;4490;49.072;8.804;2022-11-20T05:40:51;4.37;;;3.97;;
8909;SDS011;4490;49.072;8.804;2022-11-20T05:43:16;4.53;;;3.73;;
8909;SDS011;4490;49.072;8.804;2022-11-20T05:45:42;5.90;;;3.73;;
8909;SDS011;4490;49.072;8.804;2022-11-20T05:48:08;4.33;;;3.33;;
8909;SDS011;4490;49.072;8.804;2022-11-20T05:50:33;6.57;;;3.43;;
8909;SDS011;4490;49.072;8.804;2022-11-20T05:52:59;3.80;;;3.40;;
8909;SDS011;4490;49.072;8.804;2022-11-20T05:55:25;6.77;;;3.50;;
8909;SDS011;4490;49.072;8.804;2022-11-20T05:57:54;3.80;;;3.30;;
8909;SDS011;4490;49.072;8.804;2022-11-20T06:00:20;3.90;;;3.30;;
8909;SDS011;4490;49.072;8.804;2022-11-20T06:02:45;7.97;;;3.57;;
8909;SDS011;4490;49.072;8.804;2022-11-20T06:05:11;5.17;;;3.60;;
8909;SDS011;4490;49.072;8.804;2022-11-20T06:07:36;4.93;;;3.20;;
8909;SDS011;4490;49.072;8.804;2022-11-20T06:10:02;4.47;;;2.97;;
8909;SDS011;4490;49.072;8.804;2022-11-20T06:12:28;3.67;;;2.97;;
8909;SDS011;4490;49.072;8.804;2022-11-20T06:14:55;5.10;;;3.20;;
8909;SDS011;4490;49.072;8.804;2022-11-20T06:17:21;3.70;;;2.90;;
8909;SDS011;4490;49.072;8.804;2022-11-20T06:19:46;4.33;;;3.10;;
8909;SDS011;4490;49.072;8.804;2022-11-20T06:22:12;2.80;;;2.60;;
8909;SDS011;4490;49.072;8.804;2022-11-20T06:24:38;5.93;;;2.73;;
8909;SDS011;4490;49.072;8.804;2022-11-20T06:27:03;4.97;;;2.63;;
8909;SDS011;4490;49.072;8.804;2022-11-20T06:29:29;3.33;;;2.73;;
8909;SDS011;4490;49.072;8.804;2022-11-20T06:31:55;2.80;;;2.60;;
8909;SDS011;4490;49.072;8.804;2022-11-20T06:34:20;4.03;;;2.80;;
8909;SDS011;4490;49.072;8.804;2022-11-20T06:36:46;3.10;;;2.47;;
8909;SDS011;4490;49.072;8.804;2022-11-20T06:39:11;2.23;;;2.10;;
8909;SDS011;4490;49.072;8.804;2022-11-20T06:41:37;4.30;;;2.70;;
8909;SDS011;4490;49.072;8.804;2022-11-20T06:44:03;4.87;;;2.37;;
8909;SDS011;4490;49.072;8.804;2022-11-20T06:46:30;3.67;;;2.73;;
8909;SDS011;4490;49.072;8.804;2022-11-20T06:48:56;3.07;;;2.53;;
8909;SDS011;4490;49.072;8.804;2022-11-20T06:51:23;3.70;;;2.70;;
8909;SDS011;4490;49.072;8.804;2022-11-20T06:53:48;4.73;;;2.53;;
8909;SDS011;4490;49.072;8.804;2022-11-20T06:56:14;4.10;;;2.90;;
8909;SDS011;4490;49.072;8.804;2022-11-20T06:58:39;4.00;;;2.70;;
8909;SDS011;4490;49.072;8.804;2022-11-20T07:01:06;3.47;;;2.63;;
8909;SDS011;4490;49.072;8.804;2022-11-20T07:03:34;3.60;;;2.93;;
8909;SDS011;4490;49.072;8.804;2022-11-20T07:06:00;4.23;;;2.83;;
8909;SDS011;4490;49.072;8.804;2022-11-20T07:08:27;3.53;;;3.23;;
8909;SDS011;4490;49.072;8.804;2022-11-20T07:10:56;3.07;;;2.60;;
8909;SDS011;4490;49.072;8.804;2022-11-20T07:13:24;4.07;;;3.13;;
8909;SDS011;4490;49.072;8.804;2022-11-20T07:15:50;3.67;;;3.00;;
8909;SDS011;4490;49.072;8.804;2022-11-20T07:18:16;3.27;;;2.70;;
8909;SDS011;4490;49.072;8.804;2022-11-20T07:20:41;2.90;;;2.53;;
8909;SDS011;4490;49.072;8.804;2022-11-20T07:23:07;3.10;;;2.80;;
8909;SDS011;4490;49.072;8.804;2022-11-20T07:25:32;3.07;;;2.50;;
8909;SDS011;4490;49.072;8.804;2022-11-20T07:27:58;7.23;;;2.53;;
8909;SDS011;4490;49.072;8.804;2022-11-20T07:30:25;3.23;;;2.70;;
8909;SDS011;4490;49.072;8.804;2022-11-20T07:32:52;4.40;;;2.73;;
8909;SDS011;4490;49.072;8.804;2022-11-20T07:35:18;4.63;;;3.13;;
8909;SDS011;4490;49.072;8.804;2022-11-20T07:37:44;3.10;;;2.70;;
8909;SDS011;4490;49.072;8.804;2022-11-20T07:40:11;3.90;;;2.53;;
8909;SDS011;4490;49.072;8.804;2022-11-20T07:42:37;3.20;;;2.90;;
8909;SDS011;4490;49.072;8.804;2022-11-20T07:45:03;4.47;;;3.00;;
8909;SDS011;4490;49.072;8.804;2022-11-20T07:47:34;2.67;;;2.40;;
8909;SDS011;4490;49.072;8.804;2022-11-20T07:50:00;3.43;;;2.70;;
8909;SDS011;4490;49.072;8.804;2022-11-20T07:52:26;4.93;;;2.97;;
8909;SDS011;4490;49.072;8.804;2022-11-20T07:54:51;5.77;;;2.80;;
8909;SDS011;4490;49.072;8.804;2022-11-20T07:57:17;2.63;;;2.43;;
8909;SDS011;4490;49.072;8.804;2022-11-20T07:59:42;4.20;;;2.57;;
8909;SDS011;4490;49.072;8.804;2022-11-20T08:02:10;4.43;;;2.70;;
8909;SDS011;4490;49.072;8.804;2022-11-20T08:04:36;3.80;;;3.00;;
8909;SDS011;4490;49.072;8.804;2022-11-20T08:07:01;4.27;;;2.70;;
8909;SDS011;4490;49.072;8.804;2022-11-20T08:09:27;3.20;;;2.90;;
8909;SDS011;4490;49.072;8.804;2022-11-20T08:11:53;2.73;;;2.53;;
8909;SDS011;4490;49.072;8.804;2022-11-20T08:14:38;4.00;;;2.57;;
8909;SDS011;4490;49.072;8.804;2022-11-20T08:17:04;3.57;;;2.70;;
8909;SDS011;4490;49.072;8.804;2022-11-20T08:19:29;3.20;;;2.73;;
8909;SDS011;4490;49.072;8.804;2022-11-20T08:21:55;3.93;;;2.90;;
8909;SDS011;4490;49.072;8.804;2022-11-20T08:24:20;4.37;;;3.23;;
8909;SDS011;4490;49.072;8.804;2022-11-20T08:26:46;7.53;;;3.30;;
8909;SDS011;4490;49.072;8.804;2022-11-20T08:29:12;3.23;;;2.77;;
8909;SDS011;4490;49.072;8.804;2022-11-20T08:31:37;4.27;;;3.30;;
8909;SDS011;4490;49.072;8.804;2022-11-20T08:34:03;4.03;;;3.50;;
8909;SDS011;4490;49.072;8.804;2022-11-20T08:36:32;3.30;;;3.00;;
8909;SDS011;4490;49.072;8.804;2022-11-20T08:38:58;5.67;;;3.27;;
8909;SDS011;4490;49.072;8.804;2022-11-20T08:41:24;4.13;;;3.70;;
8909;SDS011;4490;49.072;8.804;2022-11-20T08:43:56;5.43;;;3.23;;
8909;SDS011;4490;49.072;8.804;2022-11-20T08:46:27;3.60;;;3.30;;
8909;SDS011;4490;49.072;8.804;2022-11-20T08:48:58;3.63;;;3.33;;
8909;SDS011;4490;49.072;8.804;2022-11-20T08:51:24;4.23;;;3.30;;
8909;SDS011;4490;49.072;8.804;2022-11-20T08:53:49;4.57;;;3.20;;
8909;SDS011;4490;49.072;8.804;2022-11-20T08:56:15;4.13;;;3.70;;
8909;SDS011;4490;49.072;8.804;2022-11-20T08:58:42;4.57;;;3.77;;
8909;SDS011;4490;49.072;8.804;2022-11-20T09:01:07;4.33;;;3.80;;
8909;SDS011;4490;49.072;8.804;2022-11-20T09:03:33;5.60;;;3.70;;
8909;SDS011;4490;49.072;8.804;2022-11-20T09:05:59;4.40;;;3.90;;
8909;SDS011;4490;49.072;8.804;2022-11-20T09:08:29;4.93;;;4.10;;
8909;SDS011;4490;49.072;8.804;2022-11-20T09:10:55;6.40;;;4.77;;
8909;SDS011;4490;49.072;8.804;2022-11-20T09:13:22;5.03;;;4.53;;
8909;SDS011;4490;49.072;8.804;2022-11-20T09:15:54;6.10;;;4.43;;
8909;SDS011;4490;49.072;8.804;2022-11-20T09:18:27;6.87;;;4.63;;
8909;SDS011;4490;49.072;8.804;2022-11-20T09:20:58;5.33;;;4.67;;
8909;SDS011;4490;49.072;8.804;2022-11-20T09:23:25;5.43;;;4.20;;
8909;SDS011;4490;49.072;8.804;2022-11-20T09:25:51;4.80;;;4.30;;
8909;SDS011;4490;49.072;8.804;2022-11-20T09:28:17;7.10;;;4.33;;
8909;SDS011;4490;49.072;8.804;2022-11-20T09:30:43;4.97;;;4.23;;
8909;SDS011;4490;49.072;8.804;2022-11-20T09:33:09;6.30;;;4.77;;
8909;SDS011;4490;49.072;8.804;2022-11-20T09:35:35;5.40;;;4.53;;
8909;SDS011;4490;49.072;8.804;2022-11-20T09:38:05;5.70;;;4.60;;
8909;SDS011;4490;49.072;8.804;2022-11-20T09:40:36;4.50;;;3.70;;
8909;SDS011;4490;49.072;8.804;2022-11-20T09:46:26;5.97;;;4.30;;
8909;SDS011;4490;49.072;8.804;2022-11-20T09:54:45;4.80;;;4.07;;
8909;SDS011;4490;49.072;8.804;2022-11-20T09:57:11;6.73;;;4.30;;
8909;SDS011;4490;49.072;8.804;2022-11-20T09:59:41;6.17;;;4.00;;
8909;SDS011;4490;49.072;8.804;2022-11-20T10:05:11;5.17;;;4.10;;
8909;SDS011;4490;49.072;8.804;2022-11-20T10:11:05;5.93;;;4.30;;
8909;SDS011;4490;49.072;8.804;2022-11-20T10:14:15;3.70;;;3.40;;
8909;SDS011;4490;49.072;8.804;2022-11-20T10:17:12;4.40;;;3.80;;
8909;SDS011;4490;49.072;8.804;2022-11-20T10:25:15;4.90;;;4.03;;
8909;SDS011;4490;49.072;8.804;2022-11-20T10:28:01;3.90;;;3.50;;
8909;SDS011;4490;49.072;8.804;2022-11-20T10:30:37;6.27;;;4.13;;
8909;SDS011;4490;49.072;8.804;2022-11-20T10:33:19;4.77;;;3.63;;
8909;SDS011;4490;49.072;8.804;2022-11-20T10:35:52;3.60;;;3.30;;
8909;SDS011;4490;49.072;8.804;2022-11-20T10:38:31;5.20;;;3.37;;
8909;SDS011;4490;49.072;8.804;2022-11-20T10:41:02;4.33;;;3.70;;
8909;SDS011;4490;49.072;8.804;2022-11-20T10:43:49;4.10;;;3.70;;
8909;SDS011;4490;49.072;8.804;2022-11-20T10:46:19;6.10;;;4.47;;
8909;SDS011;4490;49.072;8.804;2022-11-20T10:48:49;5.97;;;4.70;;
8909;SDS011;4490;49.072;8.804;2022-11-20T10:56:56;6.53;;;5.30;;
8909;SDS011;4490;49.072;8.804;2022-11-20T10:59:34;8.90;;;5.67;;
8909;SDS011;4490;49.072;8.804;2022-11-20T11:05:22;8.73;;;6.53;;
8909;SDS011;4490;49.072;8.804;2022-11-20T11:07:57;8.17;;;6.23;;
8909;SDS011;4490;49.072;8.804;2022-11-20T11:11:12;7.37;;;6.07;;
8909;SDS011;4490;49.072;8.804;2022-11-20T11:13:35;12.17;;;5.80;;
8909;SDS011;4490;49.072;8.804;2022-11-20T11:16:00;6.70;;;5.50;;
8909;SDS011;4490;49.072;8.804;2022-11-20T11:18:29;5.77;;;5.10;;
8909;SDS011;4490;49.072;8.804;2022-11-20T11:20:57;6.10;;;5.00;;
8909;SDS011;4490;49.072;8.804;2022-11-20T11:23:31;6.23;;;4.97;;
8909;SDS011;4490;49.072;8.804;2022-11-20T11:26:19;7.47;;;4.70;;
8909;SDS011;4490;49.072;8.804;2022-11-20T11:28:59;5.87;;;4.67;;
8909;SDS011;4490;49.072;8.804;2022-11-20T11:31:28;5.17;;;4.40;;
8909;SDS011;4490;49.072;8.804;2022-11-20T11:36:33;5.87;;;3.90;;
8909;SDS011;4490;49.072;8.804;2022-11-20T11:39:02;4.03;;;3.57;;
8909;SDS011;4490;49.072;8.804;2022-11-20T11:41:33;5.83;;;3.70;;
8909;SDS011;4490;49.072;8.804;2022-11-20T11:44:23;5.23;;;3.80;;
8909;SDS011;4490;49.072;8.804;2022-11-20T11:49:49;3.87;;;3.37;;
8909;SDS011;4490;49.072;8.804;2022-11-20T11:52:25;6.17;;;3.70;;
8909;SDS011;4490;49.072;8.804;2022-11-20T11:54:53;8.67;;;3.80;;
8909;SDS011;4490;49.072;8.804;2022-11-20T12:00:09;7.93;;;3.40;;
8909;SDS011;4490;49.072;8.804;2022-11-20T12:07:52;5.47;;;3.40;;
8909;SDS011;4490;49.072;8.804;2022-11-20T12:10:24;4.97;;;3.03;;
8909;SDS011;4490;49.072;8.804;2022-11-20T12:13:02;6.00;;;3.23;;
8909;SDS011;4490;49.072;8.804;2022-11-20T12:15:46;5.83;;;3.17;;
8909;SDS011;4490;49.072;8.804;2022-11-20T12:18:18;4.63;;;3.10;;
8909;SDS011;4490;49.072;8.804;2022-11-20T12:20:48;4.67;;;2.60;;
8909;SDS011;4490;49.072;8.804;2022-11-20T12:29:06;3.87;;;2.50;;
8909;SDS011;4490;49.072;8.804;2022-11-20T12:32:20;4.67;;;2.73;;
8909;SDS011;4490;49.072;8.804;2022-11-20T12:34:56;4.83;;;2.63;;
8909;SDS011;4490;49.072;8.804;2022-11-20T12:37:44;4.80;;;2.43;;
8909;SDS011;4490;49.072;8.804;2022-11-20T12:43:23;4.80;;;2.47;;
8909;SDS011;4490;49.072;8.804;2022-11-20T12:49:18;3.43;;;2.50;;
8909;SDS011;4490;49.072;8.804;2022-11-20T12:57:16;2.20;;;2.00;;
8909;SDS011;4490;49.072;8.804;2022-11-20T13:02:46;2.90;;;2.13;;
8909;SDS011;4490;49.072;8.804;2022-11-20T13:05:43;4.77;;;2.23;;
8909;SDS011;4490;49.072;8.804;2022-11-20T13:08:30;5.20;;;2.30;;
8909;SDS011;4490;49.072;8.804;2022-11-20T13:19:09;4.00;;;2.03;;
8909;SDS011;4490;49.072;8.804;2022-11-20T13:24:05;4.37;;;2.23;;
8909;SDS011;4490;49.072;8.804;2022-11-20T13:26:32;3.43;;;2.13;;
8909;SDS011;4490;49.072;8.804;2022-11-20T13:28:59;3.13;;;1.50;;
8909;SDS011;4490;49.072;8.804;2022-11-20T13:31:36;2.83;;;1.60;;
8909;SDS011;4490;49.072;8.804;2022-11-20T13:34:07;2.07;;;1.87;;
8909;SDS011;4490;49.072;8.804;2022-11-20T13:36:47;3.93;;;1.50;;
8909;SDS011;4490;49.072;8.804;2022-11-20T13:39:25;3.70;;;1.50;;
8909;SDS011;4490;49.072;8.804;2022-11-20T13:42:02;4.10;;;1.33;;
8909;SDS011;4490;49.072;8.804;2022-11-20T13:44:48;2.57;;;1.50;;
8909;SDS011;4490;49.072;8.804;2022-11-20T13:47:22;7.17;;;1.70;;
8909;SDS011;4490;49.072;8.804;2022-11-20T13:49:51;2.20;;;1.30;;
8909;SDS011;4490;49.072;8.804;2022-11-20T14:00:32;2.93;;;1.40;;
8909;SDS011;4490;49.072;8.804;2022-11-20T14:05:51;3.60;;;1.57;;
8909;SDS011;4490;49.072;8.804;2022-11-20T14:09:03;2.83;;;1.90;;
8909;SDS011;4490;49.072;8.804;2022-11-20T14:13:52;2.27;;;1.50;;
8909;SDS011;4490;49.072;8.804;2022-11-20T14:16:25;1.93;;;1.40;;
8909;SDS011;4490;49.072;8.804;2022-11-20T14:18:52;5.33;;;1.30;;
8909;SDS011;4490;49.072;8.804;2022-11-20T14:21:25;2.53;;;1.50;;
8909;SDS011;4490;49.072;8.804;2022-11-20T14:23:53;2.57;;;1.30;;
8909;SDS011;4490;49.072;8.804;2022-11-20T14:26:31;4.77;;;1.30;;
8909;SDS011;4490;49.072;8.804;2022-11-20T14:28:57;2.30;;;1.50;;
8909;SDS011;4490;49.072;8.804;2022-11-20T14:31:24;3.43;;;1.40;;
8909;SDS011;4490;49.072;8.804;2022-11-20T14:33:52;2.80;;;1.50;;
8909;SDS011;4490;49.072;8.804;2022-11-20T14:36:20;2.23;;;1.40;;
8909;SDS011;4490;49.072;8.804;2022-11-20T14:38:47;2.83;;;1.30;;
8909;SDS011;4490;49.072;8.804;2022-11-20T14:41:20;1.50;;;1.00;;
8909;SDS011;4490;49.072;8.804;2022-11-20T14:43:50;3.00;;;1.43;;
8909;SDS011;4490;49.072;8.804;2022-11-20T14:46:24;2.07;;;1.60;;
8909;SDS011;4490;49.072;8.804;2022-11-20T14:48:55;1.40;;;1.30;;
8909;SDS011;4490;49.072;8.804;2022-11-20T14:54:17;4.20;;;1.43;;
8909;SDS011;4490;49.072;8.804;2022-11-20T14:56:57;3.53;;;1.70;;
8909;SDS011;4490;49.072;8.804;2022-11-20T14:59:28;1.87;;;1.40;;
8909;SDS011;4490;49.072;8.804;2022-11-20T15:02:00;1.40;;;1.30;;
8909;SDS011;4490;49.072;8.804;2022-11-20T15:04:30;3.47;;;1.80;;
8909;SDS011;4490;49.072;8.804;2022-11-20T15:06:56;3.27;;;1.67;;
8909;SDS011;4490;49.072;8.804;2022-11-20T15:09:23;2.90;;;1.57;;
8909;SDS011;4490;49.072;8.804;2022-11-20T15:11:55;3.90;;;1.40;;
8909;SDS011;4490;49.072;8.804;2022-11-20T15:14:25;2.73;;;1.47;;
8909;SDS011;4490;49.072;8.804;2022-11-20T15:16:52;2.27;;;1.50;;
8909;SDS011;4490;49.072;8.804;2022-11-20T15:19:20;2.70;;;1.60;;
8909;SDS011;4490;49.072;8.804;2022-11-20T15:21:47;3.50;;;1.67;;
8909;SDS011;4490;49.072;8.804;2022-11-20T15:24:13;2.73;;;1.57;;
8909;SDS011;4490;49.072;8.804;2022-11-20T15:26:39;2.80;;;1.40;;
8909;SDS011;4490;49.072;8.804;2022-11-20T15:29:07;1.90;;;1.50;;
8909;SDS011;4490;49.072;8.804;2022-11-20T15:31:37;3.13;;;1.70;;
8909;SDS011;4490;49.072;8.804;2022-11-20T15:34:08;3.00;;;1.70;;
8909;SDS011;4490;49.072;8.804;2022-11-20T15:36:39;2.40;;;1.57;;
8909;SDS011;4490;49.072;8.804;2022-11-20T15:39:05;3.63;;;1.83;;
8909;SDS011;4490;49.072;8.804;2022-11-20T15:41:34;5.20;;;1.80;;
8909;SDS011;4490;49.072;8.804;2022-11-20T15:44:00;2.13;;;1.90;;
8909;SDS011;4490;49.072;8.804;2022-11-20T15:46:27;3.83;;;1.80;;
8909;SDS011;4490;49.072;8.804;2022-11-20T15:48:55;3.70;;;1.80;;
8909;SDS011;4490;49.072;8.804;2022-11-20T15:51:35;3.33;;;1.70;;
8909;SDS011;4490;49.072;8.804;2022-11-20T15:54:13;3.70;;;1.90;;
8909;SDS011;4490;49.072;8.804;2022-11-20T15:56:40;4.40;;;1.43;;
8909;SDS011;4490;49.072;8.804;2022-11-20T15:59:06;3.17;;;1.87;;
8909;SDS011;4490;49.072;8.804;2022-11-20T16:01:33;2.70;;;1.97;;
8909;SDS011;4490;49.072;8.804;2022-11-20T16:03:59;2.33;;;1.40;;
8909;SDS011;4490;49.072;8.804;2022-11-20T16:06:26;3.63;;;1.50;;
8909;SDS011;4490;49.072;8.804;2022-11-20T16:08:51;1.90;;;1.70;;
8909;SDS011;4490;49.072;8.804;2022-11-20T16:11:17;3.53;;;1.60;;
8909;SDS011;4490;49.072;8.804;2022-11-20T16:13:43;3.77;;;1.57;;
8909;SDS011;4490;49.072;8.804;2022-11-20T16:16:29;3.20;;;1.60;;
8909;SDS011;4490;49.072;8.804;2022-11-20T16:18:58;2.53;;;1.90;;
8909;SDS011;4490;49.072;8.804;2022-11-20T16:21:24;2.90;;;2.40;;
8909;SDS011;4490;49.072;8.804;2022-11-20T16:24:00;4.77;;;3.87;;
8909;SDS011;4490;49.072;8.804;2022-11-20T16:26:31;6.33;;;3.00;;
8909;SDS011;4490;49.072;8.804;2022-11-20T16:29:00;6.33;;;3.00;;
8909;SDS011;4490;49.072;8.804;2022-11-20T16:31:28;4.57;;;3.40;;
8909;SDS011;4490;49.072;8.804;2022-11-20T16:33:55;7.30;;;4.20;;
8909;SDS011;4490;49.072;8.804;2022-11-20T16:36:24;7.07;;;4.27;;
8909;SDS011;4490;49.072;8.804;2022-11-20T16:38:54;5.33;;;3.30;;
8909;SDS011;4490;49.072;8.804;2022-11-20T16:41:21;4.03;;;3.10;;
8909;SDS011;4490;49.072;8.804;2022-11-20T16:43:48;4.90;;;3.00;;
8909;SDS011;4490;49.072;8.804;2022-11-20T16:46:16;4.70;;;3.40;;
8909;SDS011;4490;49.072;8.804;2022-11-20T16:48:44;3.20;;;2.90;;
8909;SDS011;4490;49.072;8.804;2022-11-20T16:51:16;3.63;;;2.27;;
8909;SDS011;4490;49.072;8.804;2022-11-20T16:53:42;3.00;;;2.60;;
8909;SDS011;4490;49.072;8.804;2022-11-20T16:56:17;3.57;;;3.03;;